sensor_id;sensor_type;location;lat;lon;timestamp;temperature;humidity
73360;DHT22;63092;43.582;19.528;2023-10-19T00:00:19;9.70;99.90
73360;DHT22;63092;43.582;19.528;2023-10-19T00:02:49;9.70;99.90
73360;DHT22;63092;43.582;19.528;2023-10-19T00:05:18;9.70;99.90
73360;DHT22;63092;43.582;19.528;2023-10-19T00:07:44;9.70;99.90
73360;DHT22;63092;43.582;19.528;2023-10-19T00:10:10;9.70;99.90
73360;DHT22;63092;43.582;19.528;2023-10-19T00:12:40;9.70;99.90
73360;DHT22;63092;43.582;19.528;2023-10-19T00:15:06;9.70;99.90
73360;DHT22;63092;43.582;19.528;2023-10-19T00:17:32;9.70;99.90
73360;DHT22;63092;43.582;19.528;2023-10-19T00:19:58;9.70;99.90
73360;DHT22;63092;43.582;19.528;2023-10-19T00:22:42;9.70;99.90
73360;DHT22;63092;43.582;19.528;2023-10-19T00:25:08;9.80;99.90
73360;DHT22;63092;43.582;19.528;2023-10-19T00:27:37;9.80;99.90
73360;DHT22;63092;43.582;19.528;2023-10-19T00:30:03;9.80;99.90
73360;DHT22;63092;43.582;19.528;2023-10-19T00:32:32;9.80;99.90
73360;DHT22;63092;43.582;19.528;2023-10-19T00:35:05;9.80;99.90
73360;DHT22;63092;43.582;19.528;2023-10-19T00:37:33;9.80;99.90
73360;DHT22;63092;43.582;19.528;2023-10-19T00:40:11;9.80;99.90
73360;DHT22;63092;43.582;19.528;2023-10-19T00:43:02;9.80;99.90
73360;DHT22;63092;43.582;19.528;2023-10-19T00:45:31;9.80;99.90
73360;DHT22;63092;43.582;19.528;2023-10-19T00:47:59;9.90;99.90
73360;DHT22;63092;43.582;19.528;2023-10-19T00:50:25;9.80;99.90
73360;DHT22;63092;43.582;19.528;2023-10-19T00:52:56;9.90;99.90
73360;DHT22;63092;43.582;19.528;2023-10-19T00:55:24;9.90;99.90
73360;DHT22;63092;43.582;19.528;2023-10-19T00:57:53;9.90;99.90
73360;DHT22;63092;43.582;19.528;2023-10-19T01:00:20;9.90;99.90
73360;DHT22;63092;43.582;19.528;2023-10-19T01:03:00;9.90;99.90
73360;DHT22;63092;43.582;19.528;2023-10-19T01:05:26;10.00;99.90
73360;DHT22;63092;43.582;19.528;2023-10-19T01:08:01;10.00;99.90
73360;DHT22;63092;43.582;19.528;2023-10-19T01:10:29;10.00;99.90
73360;DHT22;63092;43.582;19.528;2023-10-19T01:12:57;10.00;99.90
73360;DHT22;63092;43.582;19.528;2023-10-19T01:15:25;10.10;99.90
73360;DHT22;63092;43.582;19.528;2023-10-19T01:17:54;10.10;99.90
73360;DHT22;63092;43.582;19.528;2023-10-19T01:20:27;10.10;99.90
73360;DHT22;63092;43.582;19.528;2023-10-19T01:28:22;10.10;99.90
73360;DHT22;63092;43.582;19.528;2023-10-19T01:30:51;10.10;99.90
73360;DHT22;63092;43.582;19.528;2023-10-19T01:33:20;10.10;99.90
73360;DHT22;63092;43.582;19.528;2023-10-19T01:35:46;10.10;99.90
73360;DHT22;63092;43.582;19.528;2023-10-19T01:38:31;10.10;99.90
73360;DHT22;63092;43.582;19.528;2023-10-19T01:41:01;10.10;99.90
73360;DHT22;63092;43.582;19.528;2023-10-19T01:43:28;10.00;99.90
73360;DHT22;63092;43.582;19.528;2023-10-19T01:45:57;9.90;99.90
73360;DHT22;63092;43.582;19.528;2023-10-19T01:48:24;9.90;99.90
73360;DHT22;63092;43.582;19.528;2023-10-19T01:51:05;9.80;99.90
73360;DHT22;63092;43.582;19.528;2023-10-19T01:53:34;9.80;99.90
73360;DHT22;63092;43.582;19.528;2023-10-19T01:56:13;9.70;99.90
73360;DHT22;63092;43.582;19.528;2023-10-19T01:58:41;9.70;99.90
73360;DHT22;63092;43.582;19.528;2023-10-19T02:01:08;9.70;99.90
73360;DHT22;63092;43.582;19.528;2023-10-19T02:03:41;9.70;99.90
73360;DHT22;63092;43.582;19.528;2023-10-19T02:06:11;9.60;99.90
73360;DHT22;63092;43.582;19.528;2023-10-19T02:08:49;9.60;99.90
73360;DHT22;63092;43.582;19.528;2023-10-19T02:11:23;9.60;99.90
73360;DHT22;63092;43.582;19.528;2023-10-19T02:13:51;9.70;99.90
73360;DHT22;63092;43.582;19.528;2023-10-19T02:16:20;9.60;99.90
73360;DHT22;63092;43.582;19.528;2023-10-19T02:18:51;9.60;99.90
73360;DHT22;63092;43.582;19.528;2023-10-19T02:21:17;9.50;99.90
73360;DHT22;63092;43.582;19.528;2023-10-19T02:23:59;9.50;99.90
73360;DHT22;63092;43.582;19.528;2023-10-19T02:26:24;9.60;99.90
73360;DHT22;63092;43.582;19.528;2023-10-19T02:28:54;9.60;99.90
73360;DHT22;63092;43.582;19.528;2023-10-19T02:31:22;9.70;99.90
73360;DHT22;63092;43.582;19.528;2023-10-19T02:33:53;9.60;99.90
73360;DHT22;63092;43.582;19.528;2023-10-19T02:36:29;9.70;99.90
73360;DHT22;63092;43.582;19.528;2023-10-19T02:39:00;9.70;99.90
73360;DHT22;63092;43.582;19.528;2023-10-19T02:41:33;9.70;99.90
73360;DHT22;63092;43.582;19.528;2023-10-19T02:44:01;9.70;99.90
73360;DHT22;63092;43.582;19.528;2023-10-19T02:46:49;9.60;99.90
73360;DHT22;63092;43.582;19.528;2023-10-19T02:49:17;9.50;99.90
73360;DHT22;63092;43.582;19.528;2023-10-19T02:51:47;9.50;99.90
73360;DHT22;63092;43.582;19.528;2023-10-19T02:54:14;9.60;99.90
73360;DHT22;63092;43.582;19.528;2023-10-19T02:56:54;9.50;99.90
73360;DHT22;63092;43.582;19.528;2023-10-19T02:59:23;9.50;99.90
73360;DHT22;63092;43.582;19.528;2023-10-19T03:01:50;9.50;99.90
73360;DHT22;63092;43.582;19.528;2023-10-19T03:04:17;9.50;99.90
73360;DHT22;63092;43.582;19.528;2023-10-19T03:06:43;9.60;99.90
73360;DHT22;63092;43.582;19.528;2023-10-19T03:09:09;9.60;99.90
73360;DHT22;63092;43.582;19.528;2023-10-19T03:11:43;9.50;99.90
73360;DHT22;63092;43.582;19.528;2023-10-19T03:14:11;9.50;99.90
73360;DHT22;63092;43.582;19.528;2023-10-19T03:16:38;9.50;99.90
73360;DHT22;63092;43.582;19.528;2023-10-19T03:19:07;9.50;99.90
73360;DHT22;63092;43.582;19.528;2023-10-19T03:21:33;9.50;99.90
73360;DHT22;63092;43.582;19.528;2023-10-19T03:24:07;9.40;99.90
73360;DHT22;63092;43.582;19.528;2023-10-19T03:26:38;9.40;99.90
73360;DHT22;63092;43.582;19.528;2023-10-19T03:29:05;9.50;99.90
73360;DHT22;63092;43.582;19.528;2023-10-19T03:31:38;9.40;99.90
73360;DHT22;63092;43.582;19.528;2023-10-19T03:34:12;9.40;99.90
73360;DHT22;63092;43.582;19.528;2023-10-19T03:36:39;9.50;99.90
73360;DHT22;63092;43.582;19.528;2023-10-19T03:39:05;9.60;99.90
73360;DHT22;63092;43.582;19.528;2023-10-19T03:41:39;9.70;99.90
73360;DHT22;63092;43.582;19.528;2023-10-19T03:44:08;9.70;99.90
73360;DHT22;63092;43.582;19.528;2023-10-19T03:46:44;9.80;99.90
73360;DHT22;63092;43.582;19.528;2023-10-19T03:49:23;9.80;99.90
73360;DHT22;63092;43.582;19.528;2023-10-19T03:51:59;9.80;99.90
73360;DHT22;63092;43.582;19.528;2023-10-19T03:54:34;9.90;99.90
73360;DHT22;63092;43.582;19.528;2023-10-19T03:57:03;9.90;99.90
73360;DHT22;63092;43.582;19.528;2023-10-19T03:59:32;10.00;99.90
73360;DHT22;63092;43.582;19.528;2023-10-19T04:02:00;10.00;99.90
73360;DHT22;63092;43.582;19.528;2023-10-19T04:04:32;9.90;99.90
73360;DHT22;63092;43.582;19.528;2023-10-19T04:06:59;9.90;99.90
73360;DHT22;63092;43.582;19.528;2023-10-19T04:09:25;9.90;99.90
73360;DHT22;63092;43.582;19.528;2023-10-19T04:11:57;9.90;99.90
73360;DHT22;63092;43.582;19.528;2023-10-19T04:14:23;9.90;99.90
73360;DHT22;63092;43.582;19.528;2023-10-19T04:16:49;9.80;99.90
73360;DHT22;63092;43.582;19.528;2023-10-19T04:19:15;9.80;99.90
73360;DHT22;63092;43.582;19.528;2023-10-19T04:21:42;9.80;99.90
73360;DHT22;63092;43.582;19.528;2023-10-19T04:24:12;9.70;99.90
73360;DHT22;63092;43.582;19.528;2023-10-19T04:26:39;9.70;99.90
73360;DHT22;63092;43.582;19.528;2023-10-19T04:29:06;9.70;99.90
73360;DHT22;63092;43.582;19.528;2023-10-19T04:31:42;9.70;99.90
73360;DHT22;63092;43.582;19.528;2023-10-19T04:34:18;9.70;99.90
73360;DHT22;63092;43.582;19.528;2023-10-19T04:36:47;9.70;99.90
73360;DHT22;63092;43.582;19.528;2023-10-19T04:39:13;9.70;99.90
73360;DHT22;63092;43.582;19.528;2023-10-19T04:41:42;9.80;99.90
73360;DHT22;63092;43.582;19.528;2023-10-19T04:44:09;9.70;99.90
73360;DHT22;63092;43.582;19.528;2023-10-19T04:46:36;9.70;99.90
73360;DHT22;63092;43.582;19.528;2023-10-19T04:49:02;9.70;99.90
73360;DHT22;63092;43.582;19.528;2023-10-19T04:51:29;9.70;99.90
73360;DHT22;63092;43.582;19.528;2023-10-19T04:53:55;9.70;99.90
73360;DHT22;63092;43.582;19.528;2023-10-19T04:56:21;9.60;99.90
73360;DHT22;63092;43.582;19.528;2023-10-19T04:58:47;9.60;99.90
73360;DHT22;63092;43.582;19.528;2023-10-19T05:01:14;9.60;99.90
73360;DHT22;63092;43.582;19.528;2023-10-19T05:03:40;9.60;99.90
73360;DHT22;63092;43.582;19.528;2023-10-19T05:06:06;9.60;99.90
73360;DHT22;63092;43.582;19.528;2023-10-19T05:08:32;9.50;99.90
73360;DHT22;63092;43.582;19.528;2023-10-19T05:10:58;9.50;99.90
73360;DHT22;63092;43.582;19.528;2023-10-19T05:13:27;9.40;99.90
73360;DHT22;63092;43.582;19.528;2023-10-19T05:15:58;9.40;99.90
73360;DHT22;63092;43.582;19.528;2023-10-19T05:18:25;9.40;99.90
73360;DHT22;63092;43.582;19.528;2023-10-19T05:20:52;9.40;99.90
73360;DHT22;63092;43.582;19.528;2023-10-19T05:23:24;9.40;99.90
73360;DHT22;63092;43.582;19.528;2023-10-19T05:25:52;9.40;99.90
73360;DHT22;63092;43.582;19.528;2023-10-19T05:28:19;9.40;99.90
73360;DHT22;63092;43.582;19.528;2023-10-19T05:30:45;9.50;99.90
73360;DHT22;63092;43.582;19.528;2023-10-19T05:33:11;9.40;99.90
73360;DHT22;63092;43.582;19.528;2023-10-19T05:35:37;9.50;99.90
73360;DHT22;63092;43.582;19.528;2023-10-19T05:38:07;9.50;99.90
73360;DHT22;63092;43.582;19.528;2023-10-19T05:40:33;9.60;99.90
73360;DHT22;63092;43.582;19.528;2023-10-19T05:42:59;9.70;99.90
73360;DHT22;63092;43.582;19.528;2023-10-19T05:45:27;9.70;99.90
73360;DHT22;63092;43.582;19.528;2023-10-19T05:47:55;9.80;99.90
73360;DHT22;63092;43.582;19.528;2023-10-19T05:50:21;9.80;99.90
73360;DHT22;63092;43.582;19.528;2023-10-19T05:52:46;9.90;99.90
73360;DHT22;63092;43.582;19.528;2023-10-19T05:55:14;9.90;99.90
73360;DHT22;63092;43.582;19.528;2023-10-19T05:57:40;9.90;99.90
73360;DHT22;63092;43.582;19.528;2023-10-19T06:00:08;9.90;99.90
73360;DHT22;63092;43.582;19.528;2023-10-19T06:02:39;9.90;99.90
73360;DHT22;63092;43.582;19.528;2023-10-19T06:05:05;10.00;99.90
73360;DHT22;63092;43.582;19.528;2023-10-19T06:07:32;10.00;99.90
73360;DHT22;63092;43.582;19.528;2023-10-19T06:09:58;10.00;99.90
73360;DHT22;63092;43.582;19.528;2023-10-19T06:12:26;10.10;99.90
73360;DHT22;63092;43.582;19.528;2023-10-19T06:14:52;10.00;99.90
73360;DHT22;63092;43.582;19.528;2023-10-19T06:17:17;10.10;99.90
73360;DHT22;63092;43.582;19.528;2023-10-19T06:19:44;10.10;99.90
73360;DHT22;63092;43.582;19.528;2023-10-19T06:22:11;10.20;99.90
73360;DHT22;63092;43.582;19.528;2023-10-19T06:24:37;10.20;99.90
73360;DHT22;63092;43.582;19.528;2023-10-19T06:27:03;10.30;99.90
73360;DHT22;63092;43.582;19.528;2023-10-19T06:29:29;10.20;99.90
73360;DHT22;63092;43.582;19.528;2023-10-19T06:31:55;10.20;99.90
73360;DHT22;63092;43.582;19.528;2023-10-19T06:34:21;10.30;99.90
73360;DHT22;63092;43.582;19.528;2023-10-19T06:36:46;10.40;99.90
73360;DHT22;63092;43.582;19.528;2023-10-19T06:39:12;10.50;99.90
73360;DHT22;63092;43.582;19.528;2023-10-19T06:41:39;10.60;99.90
73360;DHT22;63092;43.582;19.528;2023-10-19T06:44:05;10.70;99.90
73360;DHT22;63092;43.582;19.528;2023-10-19T06:46:31;10.80;99.90
73360;DHT22;63092;43.582;19.528;2023-10-19T06:48:57;11.00;99.90
73360;DHT22;63092;43.582;19.528;2023-10-19T06:51:26;11.10;99.90
73360;DHT22;63092;43.582;19.528;2023-10-19T06:53:52;11.10;99.90
73360;DHT22;63092;43.582;19.528;2023-10-19T06:56:18;11.20;99.90
73360;DHT22;63092;43.582;19.528;2023-10-19T06:58:44;11.30;99.90
73360;DHT22;63092;43.582;19.528;2023-10-19T07:01:10;11.40;99.90
73360;DHT22;63092;43.582;19.528;2023-10-19T07:03:36;11.50;99.90
73360;DHT22;63092;43.582;19.528;2023-10-19T07:06:03;11.60;99.90
73360;DHT22;63092;43.582;19.528;2023-10-19T07:08:29;11.70;99.90
73360;DHT22;63092;43.582;19.528;2023-10-19T07:10:55;11.90;99.90
73360;DHT22;63092;43.582;19.528;2023-10-19T07:13:21;11.90;99.90
73360;DHT22;63092;43.582;19.528;2023-10-19T07:15:48;12.00;99.90
73360;DHT22;63092;43.582;19.528;2023-10-19T07:18:17;12.00;99.90
73360;DHT22;63092;43.582;19.528;2023-10-19T07:20:43;12.10;99.90
73360;DHT22;63092;43.582;19.528;2023-10-19T07:23:09;12.10;99.90
73360;DHT22;63092;43.582;19.528;2023-10-19T07:25:48;12.20;99.90
73360;DHT22;63092;43.582;19.528;2023-10-19T07:28:18;12.10;99.90
73360;DHT22;63092;43.582;19.528;2023-10-19T07:30:45;12.00;99.90
73360;DHT22;63092;43.582;19.528;2023-10-19T07:33:12;12.00;99.90
73360;DHT22;63092;43.582;19.528;2023-10-19T07:35:46;12.10;99.90
73360;DHT22;63092;43.582;19.528;2023-10-19T07:38:15;12.10;99.90
73360;DHT22;63092;43.582;19.528;2023-10-19T07:40:43;12.20;99.90
73360;DHT22;63092;43.582;19.528;2023-10-19T07:43:11;12.30;99.90
73360;DHT22;63092;43.582;19.528;2023-10-19T07:45:37;12.30;99.90
73360;DHT22;63092;43.582;19.528;2023-10-19T07:48:04;12.40;99.90
73360;DHT22;63092;43.582;19.528;2023-10-19T07:50:37;12.60;99.90
73360;DHT22;63092;43.582;19.528;2023-10-19T07:53:04;12.80;99.90
73360;DHT22;63092;43.582;19.528;2023-10-19T07:55:30;13.00;99.90
73360;DHT22;63092;43.582;19.528;2023-10-19T07:57:58;13.10;99.90
73360;DHT22;63092;43.582;19.528;2023-10-19T08:00:28;13.10;99.90
73360;DHT22;63092;43.582;19.528;2023-10-19T08:02:59;13.10;99.90
73360;DHT22;63092;43.582;19.528;2023-10-19T08:05:25;13.10;99.90
73360;DHT22;63092;43.582;19.528;2023-10-19T08:07:51;13.00;99.90
73360;DHT22;63092;43.582;19.528;2023-10-19T08:10:19;13.00;99.90
73360;DHT22;63092;43.582;19.528;2023-10-19T08:12:46;13.00;99.90
73360;DHT22;63092;43.582;19.528;2023-10-19T08:15:16;13.10;99.90
73360;DHT22;63092;43.582;19.528;2023-10-19T08:17:44;13.30;99.90
73360;DHT22;63092;43.582;19.528;2023-10-19T08:20:12;13.40;99.90
73360;DHT22;63092;43.582;19.528;2023-10-19T08:22:56;13.40;99.90
73360;DHT22;63092;43.582;19.528;2023-10-19T08:25:23;13.40;99.90
73360;DHT22;63092;43.582;19.528;2023-10-19T08:27:49;13.40;99.90
73360;DHT22;63092;43.582;19.528;2023-10-19T08:30:17;13.40;99.90
73360;DHT22;63092;43.582;19.528;2023-10-19T08:32:44;13.40;99.90
73360;DHT22;63092;43.582;19.528;2023-10-19T08:35:20;13.50;99.90
73360;DHT22;63092;43.582;19.528;2023-10-19T08:37:50;13.60;99.90
73360;DHT22;63092;43.582;19.528;2023-10-19T08:40:16;13.70;99.90
73360;DHT22;63092;43.582;19.528;2023-10-19T08:42:44;13.80;99.90
73360;DHT22;63092;43.582;19.528;2023-10-19T08:45:14;13.90;99.90
73360;DHT22;63092;43.582;19.528;2023-10-19T08:47:56;13.90;99.90
73360;DHT22;63092;43.582;19.528;2023-10-19T08:50:25;13.90;99.90
73360;DHT22;63092;43.582;19.528;2023-10-19T08:52:56;14.00;99.90
73360;DHT22;63092;43.582;19.528;2023-10-19T08:55:22;14.20;99.90
73360;DHT22;63092;43.582;19.528;2023-10-19T08:57:49;14.40;99.90
73360;DHT22;63092;43.582;19.528;2023-10-19T09:00:16;14.50;99.90
73360;DHT22;63092;43.582;19.528;2023-10-19T09:02:48;14.60;99.90
73360;DHT22;63092;43.582;19.528;2023-10-19T09:05:14;14.80;99.90
73360;DHT22;63092;43.582;19.528;2023-10-19T09:07:49;15.00;99.90
73360;DHT22;63092;43.582;19.528;2023-10-19T09:10:25;15.00;99.90
73360;DHT22;63092;43.582;19.528;2023-10-19T09:13:05;15.10;99.90
73360;DHT22;63092;43.582;19.528;2023-10-19T09:15:41;15.10;99.90
73360;DHT22;63092;43.582;19.528;2023-10-19T09:18:17;15.20;99.90
73360;DHT22;63092;43.582;19.528;2023-10-19T09:20:45;15.20;99.90
73360;DHT22;63092;43.582;19.528;2023-10-19T09:23:35;15.30;99.90
73360;DHT22;63092;43.582;19.528;2023-10-19T09:26:02;15.50;99.90
73360;DHT22;63092;43.582;19.528;2023-10-19T09:28:34;15.50;99.90
73360;DHT22;63092;43.582;19.528;2023-10-19T09:31:01;15.50;99.90
73360;DHT22;63092;43.582;19.528;2023-10-19T09:33:28;15.50;99.90
73360;DHT22;63092;43.582;19.528;2023-10-19T09:35:57;15.50;99.90
73360;DHT22;63092;43.582;19.528;2023-10-19T09:38:26;15.60;99.90
73360;DHT22;63092;43.582;19.528;2023-10-19T09:40:53;15.60;99.90
73360;DHT22;63092;43.582;19.528;2023-10-19T09:43:46;15.70;99.90
73360;DHT22;63092;43.582;19.528;2023-10-19T09:48:47;16.10;99.90
73360;DHT22;63092;43.582;19.528;2023-10-19T09:51:19;16.10;99.90
73360;DHT22;63092;43.582;19.528;2023-10-19T09:57:10;16.50;99.90
73360;DHT22;63092;43.582;19.528;2023-10-19T09:59:45;16.50;99.90
73360;DHT22;63092;43.582;19.528;2023-10-19T10:02:15;16.60;99.90
73360;DHT22;63092;43.582;19.528;2023-10-19T10:04:43;16.50;99.90
73360;DHT22;63092;43.582;19.528;2023-10-19T10:07:15;16.50;99.90
73360;DHT22;63092;43.582;19.528;2023-10-19T10:09:43;16.60;99.90
73360;DHT22;63092;43.582;19.528;2023-10-19T10:14:58;16.60;99.90
73360;DHT22;63092;43.582;19.528;2023-10-19T10:17:25;16.70;99.90
73360;DHT22;63092;43.582;19.528;2023-10-19T10:19:54;16.80;99.90
73360;DHT22;63092;43.582;19.528;2023-10-19T10:22:22;16.90;99.90
73360;DHT22;63092;43.582;19.528;2023-10-19T10:24:54;17.00;99.80
73360;DHT22;63092;43.582;19.528;2023-10-19T10:27:21;17.10;99.90
73360;DHT22;63092;43.582;19.528;2023-10-19T10:29:57;17.10;99.90
73360;DHT22;63092;43.582;19.528;2023-10-19T10:35:09;17.10;99.90
73360;DHT22;63092;43.582;19.528;2023-10-19T10:37:37;17.20;99.90
73360;DHT22;63092;43.582;19.528;2023-10-19T10:40:04;17.30;99.90
73360;DHT22;63092;43.582;19.528;2023-10-19T10:42:31;17.40;99.70
73360;DHT22;63092;43.582;19.528;2023-10-19T10:44:59;17.60;99.60
73360;DHT22;63092;43.582;19.528;2023-10-19T10:47:25;17.70;99.30
73360;DHT22;63092;43.582;19.528;2023-10-19T10:49:53;17.70;99.40
73360;DHT22;63092;43.582;19.528;2023-10-19T10:52:33;17.70;99.30
73360;DHT22;63092;43.582;19.528;2023-10-19T10:55:12;17.60;99.40
73360;DHT22;63092;43.582;19.528;2023-10-19T10:57:39;17.60;99.40
73360;DHT22;63092;43.582;19.528;2023-10-19T11:00:07;17.70;99.50
73360;DHT22;63092;43.582;19.528;2023-10-19T11:02:37;17.80;99.30
73360;DHT22;63092;43.582;19.528;2023-10-19T11:05:12;17.90;99.50
73360;DHT22;63092;43.582;19.528;2023-10-19T11:08:11;17.90;99.30
73360;DHT22;63092;43.582;19.528;2023-10-19T11:10:43;17.90;99.00
73360;DHT22;63092;43.582;19.528;2023-10-19T11:13:15;17.90;99.00
73360;DHT22;63092;43.582;19.528;2023-10-19T11:15:51;17.90;98.90
73360;DHT22;63092;43.582;19.528;2023-10-19T11:18:37;18.00;98.50
73360;DHT22;63092;43.582;19.528;2023-10-19T11:21:09;18.00;98.40
73360;DHT22;63092;43.582;19.528;2023-10-19T11:26:04;18.10;98.40
73360;DHT22;63092;43.582;19.528;2023-10-19T11:28:34;18.00;98.00
73360;DHT22;63092;43.582;19.528;2023-10-19T11:31:16;18.00;98.10
73360;DHT22;63092;43.582;19.528;2023-10-19T11:33:44;18.10;98.10
73360;DHT22;63092;43.582;19.528;2023-10-19T11:36:11;18.20;98.40
73360;DHT22;63092;43.582;19.528;2023-10-19T11:38:44;18.30;98.50
73360;DHT22;63092;43.582;19.528;2023-10-19T11:41:11;18.30;98.30
73360;DHT22;63092;43.582;19.528;2023-10-19T11:43:39;18.30;98.50
73360;DHT22;63092;43.582;19.528;2023-10-19T11:46:05;18.40;98.20
73360;DHT22;63092;43.582;19.528;2023-10-19T11:48:36;18.50;98.10
73360;DHT22;63092;43.582;19.528;2023-10-19T11:51:05;18.50;98.10
73360;DHT22;63092;43.582;19.528;2023-10-19T11:53:36;18.60;98.00
73360;DHT22;63092;43.582;19.528;2023-10-19T11:56:07;18.70;98.40
73360;DHT22;63092;43.582;19.528;2023-10-19T11:58:33;18.80;98.30
73360;DHT22;63092;43.582;19.528;2023-10-19T12:01:18;18.80;98.30
73360;DHT22;63092;43.582;19.528;2023-10-19T12:03:44;18.80;98.30
73360;DHT22;63092;43.582;19.528;2023-10-19T12:06:13;18.80;98.40
73360;DHT22;63092;43.582;19.528;2023-10-19T12:08:49;18.80;98.40
73360;DHT22;63092;43.582;19.528;2023-10-19T12:11:15;18.90;97.90
73360;DHT22;63092;43.582;19.528;2023-10-19T12:13:42;18.90;98.20
73360;DHT22;63092;43.582;19.528;2023-10-19T12:16:14;19.10;98.40
73360;DHT22;63092;43.582;19.528;2023-10-19T12:18:45;19.10;98.20
73360;DHT22;63092;43.582;19.528;2023-10-19T12:21:13;19.20;97.90
73360;DHT22;63092;43.582;19.528;2023-10-19T12:23:41;19.20;97.60
73360;DHT22;63092;43.582;19.528;2023-10-19T12:26:07;19.30;97.80
73360;DHT22;63092;43.582;19.528;2023-10-19T12:28:41;19.30;96.20
73360;DHT22;63092;43.582;19.528;2023-10-19T12:31:07;19.50;95.50
73360;DHT22;63092;43.582;19.528;2023-10-19T12:36:07;19.60;94.70
73360;DHT22;63092;43.582;19.528;2023-10-19T12:38:48;19.60;94.60
73360;DHT22;63092;43.582;19.528;2023-10-19T12:41:15;19.70;94.60
73360;DHT22;63092;43.582;19.528;2023-10-19T12:43:40;19.80;94.60
73360;DHT22;63092;43.582;19.528;2023-10-19T12:46:07;19.80;94.10
73360;DHT22;63092;43.582;19.528;2023-10-19T12:48:34;19.80;94.00
73360;DHT22;63092;43.582;19.528;2023-10-19T12:51:04;19.90;94.50
73360;DHT22;63092;43.582;19.528;2023-10-19T12:53:32;19.90;93.90
73360;DHT22;63092;43.582;19.528;2023-10-19T12:55:59;20.00;93.90
73360;DHT22;63092;43.582;19.528;2023-10-19T12:58:25;20.00;93.50
73360;DHT22;63092;43.582;19.528;2023-10-19T13:00:53;20.10;93.60
73360;DHT22;63092;43.582;19.528;2023-10-19T13:03:20;20.20;93.50
73360;DHT22;63092;43.582;19.528;2023-10-19T13:05:47;20.20;93.70
73360;DHT22;63092;43.582;19.528;2023-10-19T13:08:15;20.30;93.60
73360;DHT22;63092;43.582;19.528;2023-10-19T13:10:42;20.30;93.40
73360;DHT22;63092;43.582;19.528;2023-10-19T13:13:10;20.30;93.20
73360;DHT22;63092;43.582;19.528;2023-10-19T13:15:45;20.20;93.10
73360;DHT22;63092;43.582;19.528;2023-10-19T13:18:12;20.30;93.50
73360;DHT22;63092;43.582;19.528;2023-10-19T13:20:50;20.30;92.90
73360;DHT22;63092;43.582;19.528;2023-10-19T13:25:48;20.40;93.00
73360;DHT22;63092;43.582;19.528;2023-10-19T13:28:23;20.40;93.10
73360;DHT22;63092;43.582;19.528;2023-10-19T13:30:51;20.40;92.90
73360;DHT22;63092;43.582;19.528;2023-10-19T13:33:18;20.40;93.40
73360;DHT22;63092;43.582;19.528;2023-10-19T13:35:45;20.40;93.00
73360;DHT22;63092;43.582;19.528;2023-10-19T13:38:12;20.30;93.00
73360;DHT22;63092;43.582;19.528;2023-10-19T13:40:40;20.30;93.10
73360;DHT22;63092;43.582;19.528;2023-10-19T13:43:07;20.30;92.90
73360;DHT22;63092;43.582;19.528;2023-10-19T13:45:34;20.30;92.80
73360;DHT22;63092;43.582;19.528;2023-10-19T13:48:04;20.30;93.20
73360;DHT22;63092;43.582;19.528;2023-10-19T13:50:31;20.20;93.50
73360;DHT22;63092;43.582;19.528;2023-10-19T13:52:58;20.20;93.20
73360;DHT22;63092;43.582;19.528;2023-10-19T13:55:25;20.20;93.30
73360;DHT22;63092;43.582;19.528;2023-10-19T13:57:51;20.20;93.30
73360;DHT22;63092;43.582;19.528;2023-10-19T14:00:18;20.20;93.30
73360;DHT22;63092;43.582;19.528;2023-10-19T14:02:56;20.20;93.30
73360;DHT22;63092;43.582;19.528;2023-10-19T14:05:23;20.20;93.20
73360;DHT22;63092;43.582;19.528;2023-10-19T14:07:50;20.20;93.30
73360;DHT22;63092;43.582;19.528;2023-10-19T14:10:18;20.30;93.30
73360;DHT22;63092;43.582;19.528;2023-10-19T14:12:45;20.30;93.30
73360;DHT22;63092;43.582;19.528;2023-10-19T14:15:16;20.30;93.80
73360;DHT22;63092;43.582;19.528;2023-10-19T14:17:43;20.30;93.50
73360;DHT22;63092;43.582;19.528;2023-10-19T14:20:10;20.30;93.70
73360;DHT22;63092;43.582;19.528;2023-10-19T14:22:48;20.30;93.80
73360;DHT22;63092;43.582;19.528;2023-10-19T14:25:14;20.30;93.80
73360;DHT22;63092;43.582;19.528;2023-10-19T14:27:41;20.30;93.70
73360;DHT22;63092;43.582;19.528;2023-10-19T14:30:12;20.40;94.40
73360;DHT22;63092;43.582;19.528;2023-10-19T14:32:43;20.40;94.10
73360;DHT22;63092;43.582;19.528;2023-10-19T14:35:13;20.40;93.60
73360;DHT22;63092;43.582;19.528;2023-10-19T14:37:41;20.60;93.30
73360;DHT22;63092;43.582;19.528;2023-10-19T14:40:09;20.70;93.00
73360;DHT22;63092;43.582;19.528;2023-10-19T14:42:39;20.90;92.80
73360;DHT22;63092;43.582;19.528;2023-10-19T14:45:09;21.00;92.70
73360;DHT22;63092;43.582;19.528;2023-10-19T14:47:39;21.00;92.70
73360;DHT22;63092;43.582;19.528;2023-10-19T14:50:12;21.00;92.70
73360;DHT22;63092;43.582;19.528;2023-10-19T14:52:43;21.00;92.90
73360;DHT22;63092;43.582;19.528;2023-10-19T14:55:10;21.00;92.90
73360;DHT22;63092;43.582;19.528;2023-10-19T14:57:39;21.00;92.90
73360;DHT22;63092;43.582;19.528;2023-10-19T15:00:06;21.00;92.80
73360;DHT22;63092;43.582;19.528;2023-10-19T15:02:54;21.00;92.90
73360;DHT22;63092;43.582;19.528;2023-10-19T15:05:21;21.10;92.90
73360;DHT22;63092;43.582;19.528;2023-10-19T15:07:49;21.00;93.00
73360;DHT22;63092;43.582;19.528;2023-10-19T15:10:19;21.00;93.00
73360;DHT22;63092;43.582;19.528;2023-10-19T15:12:45;21.00;93.20
73360;DHT22;63092;43.582;19.528;2023-10-19T15:15:11;21.00;93.20
73360;DHT22;63092;43.582;19.528;2023-10-19T15:17:39;20.90;93.30
73360;DHT22;63092;43.582;19.528;2023-10-19T15:20:08;20.80;93.40
73360;DHT22;63092;43.582;19.528;2023-10-19T15:22:38;20.80;93.40
73360;DHT22;63092;43.582;19.528;2023-10-19T15:25:05;20.70;93.50
73360;DHT22;63092;43.582;19.528;2023-10-19T15:27:33;20.60;93.70
73360;DHT22;63092;43.582;19.528;2023-10-19T15:30:00;20.50;93.80
73360;DHT22;63092;43.582;19.528;2023-10-19T15:32:25;20.50;93.80
73360;DHT22;63092;43.582;19.528;2023-10-19T15:34:51;20.40;94.10
73360;DHT22;63092;43.582;19.528;2023-10-19T15:37:18;20.40;94.20
73360;DHT22;63092;43.582;19.528;2023-10-19T15:39:44;20.40;94.20
73360;DHT22;63092;43.582;19.528;2023-10-19T15:42:10;20.20;94.50
73360;DHT22;63092;43.582;19.528;2023-10-19T15:44:37;20.10;94.50
73360;DHT22;63092;43.582;19.528;2023-10-19T15:47:04;20.00;94.70
73360;DHT22;63092;43.582;19.528;2023-10-19T15:49:47;20.00;94.70
73360;DHT22;63092;43.582;19.528;2023-10-19T15:52:14;19.90;94.90
73360;DHT22;63092;43.582;19.528;2023-10-19T15:54:39;19.90;95.00
73360;DHT22;63092;43.582;19.528;2023-10-19T15:57:06;19.80;95.20